< < Back
Terminal Aerodrome Forecast


Current Version              Previous Versions:   1  2  3  4  5  6  7  8  9  

Terminal Aerodrome Forecast

999
FTUS44 KOHX 291729
TAFBNA
TAF
KBNA 291729Z 2918/3018 23009KT P6SM VCTS SCT025CB BKN035
     FM292300 21003KT P6SM SCT050 BKN100
     FM300900 19002KT 6SM BR SCT007=

Latest METAR

305
SAUS70 KWBC 291700 RRA
MTRBNA
METAR KBNA 291653Z 23007G15KT 10SM SCT027TCU BKN036 BKN060 BKN250 29/22
A2998 RMK AO2 LTG DSNT NE AND NW SLP144 TCU ALQDS
T02940222


USA.gov is the U.S. government's official web portal to all federal, state and local government web resources and services.